Terminal Aerodrome Forecast
Issued by NWS Riverton, WY

Home | Current Version | Previous Version | Text Only | Print | Product List | Glossary On
Versions: 1 2 3 4 5 6 7 8 9 10 11 12 13 14
000
FTUS45 KRIW 032334
TAFRIW
TAF
KRIW 032334Z 0400/0424 21012G18KT P6SM -SHRA SCT050 OVC090
     FM040400 31011KT 6SM SHRA SCT035 OVC050
     FM041100 VRB05KT P6SM SCT030 BKN060
     FM041800 35006KT P6SM SCT070=

USA.gov is the U.S. government's official web portal to all federal, state and local government web resources and services.